createdAt,value
2019-02-25T00:01:35.217Z,22.40
2019-02-25T00:04:04.624Z,21.13
2019-02-25T00:06:32.714Z,20.83
2019-02-25T00:09:00.916Z,21.47
2019-02-25T00:11:29.308Z,21.37
2019-02-25T00:13:57.359Z,20.77
2019-02-25T00:16:25.925Z,22.17
2019-02-25T00:18:54.016Z,21.10
2019-02-25T00:21:22.418Z,22.00
2019-02-25T00:23:50.546Z,21.70
2019-02-25T00:26:18.771Z,22.50
2019-02-25T00:28:46.897Z,22.43
2019-02-25T00:31:14.976Z,22.40
2019-02-25T00:33:43.074Z,21.83
2019-02-25T00:36:11.176Z,21.73
2019-02-25T00:38:39.245Z,21.03
2019-02-25T00:41:07.543Z,22.03
2019-02-25T00:43:36.019Z,20.70
2019-02-25T00:46:04.998Z,20.07
2019-02-25T00:48:33.487Z,21.43
2019-02-25T00:51:01.720Z,20.53
2019-02-25T00:53:29.848Z,19.23
2019-02-25T00:55:58.110Z,20.23
2019-02-25T00:58:26.208Z,19.83
2019-02-25T01:00:54.249Z,19.63
2019-02-25T01:03:22.401Z,19.03
2019-02-25T01:05:50.747Z,19.27
2019-02-25T01:08:18.876Z,18.27
2019-02-25T01:10:47.263Z,18.00
2019-02-25T01:13:15.381Z,18.30
2019-02-25T01:15:43.448Z,18.73
2019-02-25T01:18:11.642Z,17.90
2019-02-25T01:20:42.035Z,18.53
2019-02-25T01:23:10.212Z,17.40
2019-02-25T01:25:38.348Z,17.23
2019-02-25T01:28:06.972Z,16.27
2019-02-25T01:30:36.426Z,16.53
2019-02-25T01:33:05.044Z,15.87
2019-02-25T01:35:34.200Z,16.60
2019-02-25T01:38:04.195Z,16.60
2019-02-25T01:40:33.594Z,15.67
2019-02-25T01:43:01.833Z,16.27
2019-02-25T01:45:30.294Z,16.73
2019-02-25T01:47:58.659Z,15.37
2019-02-25T01:50:26.763Z,16.00
2019-02-25T01:52:54.890Z,15.43
2019-02-25T01:55:23.007Z,16.00
2019-02-25T01:57:51.321Z,16.57
2019-02-25T02:00:19.443Z,16.57
2019-02-25T02:02:48.005Z,17.03
2019-02-25T02:05:17.121Z,15.40
2019-02-25T02:07:45.575Z,16.47
2019-02-25T02:10:14.308Z,17.27
2019-02-25T02:12:43.205Z,16.13
2019-02-25T02:15:13.537Z,16.10
2019-02-25T02:17:42.107Z,16.37
2019-02-25T02:20:13.469Z,16.47
2019-02-25T02:22:41.508Z,16.27
2019-02-25T02:25:10.109Z,15.03
2019-02-25T02:27:38.191Z,16.53
2019-02-25T02:30:10.515Z,14.90
2019-02-25T02:32:38.958Z,14.47
2019-02-25T02:35:07.765Z,14.27
2019-02-25T02:37:37.151Z,13.50
2019-02-25T02:40:06.824Z,15.23
2019-02-25T02:42:34.929Z,14.97
2019-02-25T02:45:33.461Z,14.97
2019-02-25T02:48:33.119Z,15.07
2019-02-25T02:51:01.646Z,15.33
2019-02-25T02:53:30.174Z,15.87
2019-02-25T02:55:58.529Z,15.10
2019-02-25T02:58:27.275Z,16.00
2019-02-25T03:00:56.005Z,15.23
2019-02-25T03:03:25.190Z,15.00
2019-02-25T03:05:53.703Z,15.87
2019-02-25T03:08:21.820Z,15.77
2019-02-25T03:10:49.914Z,15.40
2019-02-25T03:13:18.259Z,14.73
2019-02-25T03:15:46.487Z,15.73
2019-02-25T03:18:14.566Z,15.50
2019-02-25T03:20:42.819Z,16.60
2019-02-25T03:23:10.994Z,15.37
2019-02-25T03:25:39.700Z,16.80
2019-02-25T03:28:08.424Z,15.40
2019-02-25T03:30:36.613Z,15.60
2019-02-25T03:33:05.538Z,14.80
2019-02-25T03:35:33.919Z,13.83
2019-02-25T03:38:02.136Z,14.90
2019-02-25T03:40:30.202Z,15.77
2019-02-25T03:42:59.247Z,16.33
2019-02-25T03:45:27.360Z,14.73
2019-02-25T03:47:55.504Z,14.93
2019-02-25T03:50:23.880Z,16.67
2019-02-25T03:52:52.000Z,15.93
2019-02-25T03:55:20.881Z,16.37
2019-02-25T03:57:49.614Z,15.50
2019-02-25T04:00:20.699Z,16.50
2019-02-25T04:02:49.165Z,16.93
2019-02-25T04:05:17.385Z,16.27
2019-02-25T04:07:45.554Z,15.93
2019-02-25T04:10:15.179Z,16.83
2019-02-25T04:12:43.689Z,16.03
2019-02-25T04:15:16.563Z,15.97
2019-02-25T04:17:46.451Z,16.47
2019-02-25T04:20:15.031Z,15.23
2019-02-25T04:22:43.096Z,15.67
2019-02-25T04:25:11.375Z,15.60
2019-02-25T04:27:39.636Z,15.67
2019-02-25T04:30:11.651Z,15.27
2019-02-25T04:32:40.692Z,15.07
2019-02-25T04:35:11.540Z,15.00
2019-02-25T04:37:40.436Z,15.40
2019-02-25T04:40:10.606Z,15.40
2019-02-25T04:42:40.531Z,14.17
2019-02-25T04:45:13.325Z,16.13
2019-02-25T04:47:41.511Z,15.37
2019-02-25T04:50:10.682Z,17.77
2019-02-25T04:52:38.871Z,17.00
2019-02-25T04:55:08.240Z,17.23
2019-02-25T04:57:36.385Z,16.47
2019-02-25T05:00:09.245Z,16.40
2019-02-25T05:02:37.379Z,17.97
2019-02-25T05:05:05.596Z,15.00
2019-02-25T05:07:33.836Z,16.77
2019-02-25T05:10:02.234Z,15.00
2019-02-25T05:12:30.383Z,16.17
2019-02-25T05:14:58.592Z,15.43
2019-02-25T05:17:26.700Z,17.33
2019-02-25T05:19:54.785Z,16.03
2019-02-25T05:22:23.666Z,16.63
2019-02-25T05:24:52.761Z,16.13
2019-02-25T05:27:21.342Z,15.30
2019-02-25T05:29:49.454Z,14.93
2019-02-25T05:32:17.871Z,16.53
2019-02-25T05:34:46.922Z,15.53
2019-02-25T05:37:15.282Z,15.70
2019-02-25T05:39:43.559Z,15.97
2019-02-25T05:42:12.082Z,14.67
2019-02-25T05:44:40.218Z,16.27
2019-02-25T05:47:08.553Z,16.37
2019-02-25T05:49:36.680Z,14.60
2019-02-25T05:52:04.875Z,16.60
2019-02-25T05:54:32.967Z,17.53
2019-02-25T05:57:01.131Z,16.33
2019-02-25T05:59:30.199Z,16.60
2019-02-25T06:01:58.607Z,15.67
2019-02-25T06:04:27.685Z,17.13
2019-02-25T06:06:57.582Z,15.43
2019-02-25T06:09:25.642Z,16.23
2019-02-25T06:11:53.876Z,15.80
2019-02-25T06:14:21.953Z,16.43
2019-02-25T06:16:50.385Z,16.43
2019-02-25T06:19:18.988Z,16.80
2019-02-25T06:21:47.823Z,16.93
2019-02-25T06:24:16.887Z,17.17
2019-02-25T06:26:46.631Z,17.63
2019-02-25T06:29:15.135Z,16.97
2019-02-25T06:31:43.239Z,17.20
2019-02-25T06:34:11.924Z,17.57
2019-02-25T06:36:40.051Z,17.13
2019-02-25T06:39:08.753Z,16.27
2019-02-25T06:41:37.127Z,16.27
2019-02-25T06:44:05.338Z,16.33
2019-02-25T06:46:33.665Z,18.47
2019-02-25T06:49:02.291Z,16.33
2019-02-25T06:51:30.510Z,16.00
2019-02-25T06:53:59.224Z,16.87
2019-02-25T06:56:27.640Z,16.10
2019-02-25T06:58:56.481Z,15.90
2019-02-25T07:01:24.662Z,15.67
2019-02-25T07:04:20.542Z,16.07
2019-02-25T07:07:02.257Z,16.83
2019-02-25T07:09:55.711Z,15.47
2019-02-25T07:12:29.478Z,16.63
2019-02-25T07:15:09.183Z,16.67
2019-02-25T07:17:55.990Z,18.17
2019-02-25T07:20:36.051Z,17.83
2019-02-25T07:23:33.774Z,17.07
2019-02-25T07:26:24.827Z,18.07
2019-02-25T07:29:12.974Z,18.63
2019-02-25T07:32:09.858Z,18.40
2019-02-25T07:35:00.710Z,20.13
2019-02-25T07:37:47.128Z,18.40
2019-02-25T07:40:37.673Z,18.33
2019-02-25T07:43:28.140Z,17.93
2019-02-25T07:46:14.799Z,18.97
2019-02-25T07:49:02.420Z,20.43
2019-02-25T07:51:36.250Z,20.33
2019-02-25T07:54:30.070Z,19.67
2019-02-25T07:57:13.650Z,21.53
2019-02-25T08:00:07.370Z,22.10
2019-02-25T08:02:44.771Z,24.07
2019-02-25T08:05:42.385Z,22.47
2019-02-25T08:08:39.882Z,22.97
2019-02-25T08:11:24.125Z,21.80
2019-02-25T08:14:18.634Z,21.63
2019-02-25T08:17:01.195Z,20.53
2019-02-25T08:19:47.647Z,22.60
2019-02-25T08:22:28.371Z,20.73
2019-02-25T08:25:19.286Z,20.47
2019-02-25T08:28:07.117Z,20.57
2019-02-25T08:31:01.073Z,20.47
2019-02-25T08:33:58.459Z,19.77
2019-02-25T08:37:38.138Z,21.30
2019-02-25T08:40:44.975Z,20.83
2019-02-25T08:43:24.176Z,19.43
2019-02-25T08:46:21.304Z,19.37
2019-02-25T08:49:17.988Z,19.93
2019-02-25T08:51:46.163Z,20.63
2019-02-25T08:54:14.421Z,21.23
2019-02-25T08:56:42.494Z,20.23
2019-02-25T08:59:11.245Z,19.40
2019-02-25T09:01:39.763Z,20.53
2019-02-25T09:04:07.883Z,20.90
2019-02-25T09:06:36.471Z,19.03
2019-02-25T09:09:05.825Z,19.67
2019-02-25T09:11:34.206Z,19.80
2019-02-25T09:14:02.295Z,19.43
2019-02-25T09:16:30.417Z,20.17
2019-02-25T09:18:58.600Z,22.50
2019-02-25T09:21:31.772Z,19.27
2019-02-25T09:23:57.039Z,19.07
2019-02-25T09:26:25.204Z,19.30
2019-02-25T09:28:53.425Z,20.40
2019-02-25T09:31:21.607Z,18.47
2019-02-25T09:33:49.640Z,18.70
2019-02-25T09:36:17.885Z,20.00
2019-02-25T09:38:45.941Z,18.10
2019-02-25T09:41:14.987Z,19.37
2019-02-25T09:43:43.130Z,18.97
2019-02-25T09:46:11.401Z,19.87
2019-02-25T09:48:39.860Z,18.67
2019-02-25T09:51:07.957Z,19.70
2019-02-25T09:53:36.077Z,20.13
2019-02-25T09:56:05.131Z,19.03
2019-02-25T09:58:33.233Z,20.83
2019-02-25T10:01:01.353Z,18.90
2019-02-25T10:03:29.550Z,18.13
2019-02-25T10:05:57.708Z,17.60
2019-02-25T10:08:25.995Z,15.30
2019-02-25T10:10:54.390Z,15.87
2019-02-25T10:13:22.836Z,16.23
2019-02-25T10:15:51.152Z,13.83
2019-02-25T10:18:19.308Z,15.20
2019-02-25T10:20:47.403Z,14.67
2019-02-25T10:23:15.552Z,16.00
2019-02-25T10:25:44.295Z,14.07
2019-02-25T10:28:12.428Z,13.27
2019-02-25T10:30:40.504Z,13.50
2019-02-25T10:33:08.668Z,13.47
2019-02-25T10:35:36.785Z,13.40
2019-02-25T10:38:05.119Z,13.07
2019-02-25T10:40:33.640Z,13.03
2019-02-25T10:43:01.838Z,12.57
2019-02-25T10:45:30.783Z,12.53
2019-02-25T10:47:58.995Z,13.50
2019-02-25T10:50:28.830Z,13.53
2019-02-25T10:53:03.433Z,12.57
2019-02-25T10:55:32.911Z,13.30
2019-02-25T10:58:02.097Z,13.13
2019-02-25T11:00:31.349Z,12.73
2019-02-25T11:02:59.446Z,12.27
2019-02-25T11:05:30.333Z,12.93
2019-02-25T11:07:58.543Z,13.20
2019-02-25T11:10:31.248Z,12.27
2019-02-25T11:13:01.994Z,12.67
2019-02-25T11:15:32.091Z,13.50
2019-02-25T11:18:00.195Z,13.53
2019-02-25T11:20:29.333Z,12.90
2019-02-25T11:22:58.457Z,12.53
2019-02-25T11:25:28.454Z,13.27
2019-02-25T11:27:56.597Z,13.63
2019-02-25T11:30:24.782Z,16.37
2019-02-25T11:32:55.427Z,15.50
2019-02-25T11:35:23.167Z,15.97
2019-02-25T11:37:51.940Z,16.33
2019-02-25T11:40:21.396Z,16.40
2019-02-25T11:42:50.532Z,15.90
2019-02-25T11:45:19.249Z,15.33
2019-02-25T11:47:47.369Z,14.67
2019-02-25T11:50:15.587Z,15.13
2019-02-25T11:52:43.700Z,14.13
2019-02-25T11:55:12.351Z,14.73
2019-02-25T11:57:40.613Z,13.43
2019-02-25T12:00:16.089Z,12.80
2019-02-25T12:02:44.358Z,14.93
2019-02-25T12:05:14.336Z,12.13
2019-02-25T12:07:49.519Z,11.93
2019-02-25T12:10:17.720Z,12.73
2019-02-25T12:12:46.065Z,12.63
2019-02-25T12:15:14.764Z,13.23
2019-02-25T12:17:43.005Z,11.60
2019-02-25T12:20:11.910Z,12.30
2019-02-25T12:22:39.999Z,12.83
2019-02-25T12:25:09.659Z,12.93
2019-02-25T12:27:37.727Z,12.17
2019-02-25T12:30:11.170Z,13.07
2019-02-25T12:32:39.284Z,12.20
2019-02-25T12:35:08.057Z,13.20
2019-02-25T12:37:36.155Z,12.90
2019-02-25T12:40:04.982Z,13.47
2019-02-25T12:42:33.108Z,13.77
2019-02-25T12:45:01.242Z,12.57
2019-02-25T12:47:29.316Z,13.30
2019-02-25T12:49:58.239Z,12.97
2019-02-25T12:52:26.341Z,13.10
2019-02-25T12:54:54.473Z,13.00
2019-02-25T12:57:22.532Z,13.73
2019-02-25T12:59:50.626Z,14.77
2019-02-25T13:02:18.997Z,14.83
2019-02-25T13:04:47.133Z,14.83
2019-02-25T13:07:15.361Z,14.20
2019-02-25T13:09:43.451Z,12.53
2019-02-25T13:12:11.554Z,14.10
2019-02-25T13:14:39.651Z,12.93
2019-02-25T13:17:07.783Z,16.83
2019-02-25T13:19:35.908Z,15.00
2019-02-25T13:22:04.206Z,13.20
2019-02-25T13:24:32.748Z,13.03
2019-02-25T13:27:03.170Z,12.73
2019-02-25T13:29:31.995Z,13.60
2019-02-25T13:32:00.196Z,13.00
2019-02-25T13:34:28.270Z,10.87
2019-02-25T13:36:57.099Z,11.70
2019-02-25T13:39:25.479Z,11.43
2019-02-25T13:41:53.729Z,12.87
2019-02-25T13:44:21.974Z,11.37
2019-02-25T13:46:50.170Z,11.77
2019-02-25T13:49:18.951Z,10.13
2019-02-25T13:51:47.057Z,11.67
2019-02-25T13:54:15.283Z,11.47
2019-02-25T13:56:43.564Z,12.03
2019-02-25T13:59:12.194Z,12.23
2019-02-25T14:01:40.378Z,11.80
2019-02-25T14:04:08.632Z,12.43
2019-02-25T14:06:36.804Z,12.43
2019-02-25T14:09:08.056Z,12.47
2019-02-25T14:11:36.419Z,13.20
2019-02-25T14:14:04.619Z,12.30
2019-02-25T14:16:32.807Z,12.97
2019-02-25T14:19:01.027Z,13.20
2019-02-25T14:21:29.180Z,12.77
2019-02-25T14:23:57.659Z,13.07
2019-02-25T14:26:27.657Z,11.70
2019-02-25T14:28:55.753Z,11.83
2019-02-25T14:31:24.082Z,11.43
2019-02-25T14:33:52.479Z,9.47
2019-02-25T14:36:20.955Z,8.67
2019-02-25T14:38:49.451Z,8.30
2019-02-25T14:41:18.531Z,7.67
2019-02-25T14:43:49.613Z,8.67
2019-02-25T14:46:21.834Z,8.73
2019-02-25T14:48:47.763Z,7.97
2019-02-25T14:51:16.084Z,8.07
2019-02-25T14:53:45.190Z,8.27
2019-02-25T14:56:14.359Z,7.83
2019-02-25T14:58:43.137Z,7.43
2019-02-25T15:01:12.789Z,8.23
2019-02-25T15:03:40.865Z,8.67
2019-02-25T15:06:10.163Z,8.07
2019-02-25T15:08:38.264Z,8.30
2019-02-25T15:11:08.682Z,8.20
2019-02-25T15:13:37.600Z,8.57
2019-02-25T15:16:06.786Z,8.20
2019-02-25T15:18:35.170Z,8.20
2019-02-25T15:21:06.878Z,7.20
2019-02-25T15:23:36.371Z,7.83
2019-02-25T15:26:05.549Z,7.23
2019-02-25T15:28:34.711Z,7.60
2019-02-25T15:31:04.419Z,7.40
2019-02-25T15:33:33.626Z,7.67
2019-02-25T15:36:03.335Z,7.00
2019-02-25T15:38:33.146Z,7.30
2019-02-25T15:41:02.152Z,7.00
2019-02-25T15:43:31.862Z,7.53
2019-02-25T15:46:00.345Z,7.60
2019-02-25T15:48:29.031Z,8.80
2019-02-25T15:51:00.636Z,8.83
2019-02-25T15:53:28.724Z,8.07
2019-02-25T15:55:59.308Z,8.03
2019-02-25T15:58:27.204Z,8.53
2019-02-25T16:00:55.655Z,10.30
2019-02-25T16:03:24.484Z,9.73
2019-02-25T16:05:57.203Z,10.73
2019-02-25T16:08:23.837Z,9.97
2019-02-25T16:10:55.598Z,9.60
2019-02-25T16:13:24.050Z,10.03
2019-02-25T16:15:52.166Z,9.57
2019-02-25T16:18:20.463Z,9.43
2019-02-25T16:20:48.662Z,10.37
2019-02-25T16:23:16.773Z,9.57
2019-02-25T16:25:46.165Z,9.67
2019-02-25T16:28:17.318Z,8.83
2019-02-25T16:30:46.839Z,9.97
2019-02-25T16:33:15.785Z,9.43
2019-02-25T16:35:45.641Z,10.23
2019-02-25T16:38:14.307Z,10.20
2019-02-25T16:40:42.484Z,9.97
2019-02-25T16:43:12.700Z,9.47
2019-02-25T16:45:42.565Z,10.30
2019-02-25T16:48:10.966Z,10.30
2019-02-25T16:50:41.608Z,10.07
2019-02-25T16:53:12.726Z,10.93
2019-02-25T16:55:42.163Z,10.23
2019-02-25T16:58:13.060Z,10.60
2019-02-25T17:00:41.896Z,10.03
2019-02-25T17:03:11.145Z,10.43
2019-02-25T17:05:42.104Z,10.93
2019-02-25T17:08:14.323Z,9.37
2019-02-25T17:10:42.695Z,10.23
2019-02-25T17:13:14.315Z,10.03
2019-02-25T17:15:41.649Z,10.17
2019-02-25T17:18:15.131Z,11.83
2019-02-25T17:20:42.190Z,10.80
2019-02-25T17:23:10.306Z,10.90
2019-02-25T17:25:40.784Z,10.33
2019-02-25T17:28:14.371Z,10.70
2019-02-25T17:30:40.686Z,11.60
2019-02-25T17:33:10.532Z,11.17
2019-02-25T17:35:39.654Z,13.17
2019-02-25T17:38:08.067Z,12.93
2019-02-25T17:40:36.214Z,14.27
2019-02-25T17:43:04.815Z,11.73
2019-02-25T17:45:34.435Z,12.57
2019-02-25T17:48:08.057Z,11.83
2019-02-25T17:50:35.329Z,11.23
2019-02-25T17:53:05.119Z,11.70
2019-02-25T17:55:36.279Z,12.64
2019-02-25T17:58:05.708Z,11.67
2019-02-25T18:00:39.588Z,12.40
2019-02-25T18:03:10.933Z,11.90
2019-02-25T18:05:40.760Z,11.93
2019-02-25T18:08:14.542Z,13.20
2019-02-25T18:10:40.732Z,13.83
2019-02-25T18:13:10.935Z,13.07
2019-02-25T18:15:39.200Z,12.77
2019-02-25T18:18:09.271Z,13.57
2019-02-25T18:20:38.973Z,13.40
2019-02-25T18:23:07.288Z,13.67
2019-02-25T18:25:37.689Z,12.67
2019-02-25T18:28:06.309Z,12.97
2019-02-25T18:30:36.523Z,12.53
2019-02-25T18:33:05.447Z,13.03
2019-02-25T18:35:36.356Z,13.47
2019-02-25T18:38:05.364Z,14.43
2019-02-25T18:40:35.891Z,16.53
2019-02-25T18:43:06.550Z,17.63
2019-02-25T18:45:36.150Z,17.53
2019-02-25T18:48:06.751Z,20.87
2019-02-25T18:50:35.432Z,22.17
2019-02-25T18:53:04.063Z,19.40
2019-02-25T18:55:34.221Z,17.37
2019-02-25T18:58:05.107Z,15.93
2019-02-25T19:00:36.353Z,17.33
2019-02-25T19:03:05.641Z,15.07
2019-02-25T19:05:34.239Z,16.73
2019-02-25T19:08:14.436Z,15.73
2019-02-25T19:10:43.419Z,15.67
2019-02-25T19:13:10.964Z,16.40
2019-02-25T19:15:39.482Z,15.23
2019-02-25T19:18:09.435Z,15.40
2019-02-25T19:20:38.871Z,14.87
2019-02-25T19:23:10.190Z,15.00
2019-02-25T19:25:38.248Z,15.27
2019-02-25T19:28:07.167Z,15.97
2019-02-25T19:30:35.488Z,15.70
2019-02-25T19:33:10.994Z,14.97
2019-02-25T19:35:36.031Z,15.30
2019-02-25T19:38:05.839Z,15.70
2019-02-25T19:40:38.261Z,15.20
2019-02-25T19:43:06.067Z,14.70
2019-02-25T19:45:36.252Z,15.33
2019-02-25T19:48:05.355Z,14.77
2019-02-25T19:50:35.281Z,14.67
2019-02-25T19:53:07.001Z,16.33
2019-02-25T19:55:36.265Z,15.87
2019-02-25T19:58:05.041Z,15.30
2019-02-25T20:00:35.349Z,14.97
2019-02-25T20:03:06.147Z,15.00
2019-02-25T20:05:33.435Z,15.77
2019-02-25T20:08:01.677Z,14.80
2019-02-25T20:10:30.768Z,15.97
2019-02-25T20:12:59.703Z,15.23
2019-02-25T20:15:27.809Z,15.63
2019-02-25T20:17:55.902Z,15.13
2019-02-25T20:20:27.308Z,14.50
2019-02-25T20:22:57.336Z,16.53
2019-02-25T20:25:26.564Z,16.00
2019-02-25T20:27:57.407Z,15.27
2019-02-25T20:30:27.734Z,15.20
2019-02-25T20:32:56.030Z,14.80
2019-02-25T20:35:25.110Z,15.67
2019-02-25T20:37:55.679Z,15.50
2019-02-25T20:40:26.713Z,17.00
2019-02-25T20:42:55.974Z,15.40
2019-02-25T20:45:25.246Z,16.73
2019-02-25T20:47:55.157Z,15.97
2019-02-25T20:50:24.401Z,15.77
2019-02-25T20:52:52.433Z,16.73
2019-02-25T20:55:20.596Z,16.07
2019-02-25T20:57:48.842Z,16.23
2019-02-25T21:00:19.518Z,18.40
2019-02-25T21:02:47.928Z,18.50
2019-02-25T21:05:16.842Z,18.30
2019-02-25T21:07:47.743Z,19.17
2019-02-25T21:10:16.560Z,18.47
2019-02-25T21:12:44.638Z,18.47
2019-02-25T21:15:14.781Z,20.03
2019-02-25T21:17:42.872Z,19.87
2019-02-25T21:20:12.314Z,19.20
2019-02-25T21:22:40.506Z,20.03
2019-02-25T21:25:08.958Z,19.77
2019-02-25T21:27:39.059Z,20.17
2019-02-25T21:30:11.728Z,19.60
2019-02-25T21:32:40.573Z,18.53
2019-02-25T21:35:11.195Z,21.07
2019-02-25T21:37:41.195Z,20.37
2019-02-25T21:40:16.768Z,20.40
2019-02-25T21:46:09.718Z,19.63
2019-02-25T21:48:38.058Z,18.40
2019-02-25T21:51:07.815Z,19.73
2019-02-25T21:53:36.191Z,20.97
2019-02-25T21:56:04.898Z,19.90
2019-02-25T21:58:33.549Z,21.23
2019-02-25T22:01:01.695Z,20.83
2019-02-25T22:03:29.970Z,20.60
2019-02-25T22:06:00.448Z,21.63
2019-02-25T22:08:29.183Z,20.47
2019-02-25T22:10:59.940Z,19.97
2019-02-25T22:13:28.430Z,20.90
2019-02-25T22:15:57.390Z,21.23
2019-02-25T22:18:28.258Z,19.93
2019-02-25T22:20:56.784Z,21.33
2019-02-25T22:23:26.121Z,21.03
2019-02-25T22:25:55.115Z,20.33
2019-02-25T22:28:23.548Z,22.10
2019-02-25T22:30:52.301Z,21.47
2019-02-25T22:33:27.387Z,21.83
2019-02-25T22:35:51.997Z,20.10
2019-02-25T22:38:20.151Z,20.57
2019-02-25T22:40:48.252Z,20.80
2019-02-25T22:43:16.953Z,21.00
2019-02-25T22:45:46.376Z,21.60
2019-02-25T22:48:16.323Z,21.33
2019-02-25T22:50:44.685Z,22.83
2019-02-25T22:53:12.819Z,23.27
2019-02-25T22:55:42.620Z,21.87
2019-02-25T22:58:12.651Z,22.07
2019-02-25T23:00:46.103Z,21.60
2019-02-25T23:03:17.692Z,20.73
2019-02-25T23:05:48.676Z,21.60
2019-02-25T23:08:20.857Z,21.80
2019-02-25T23:10:49.378Z,21.90
2019-02-25T23:13:19.971Z,22.37
2019-02-25T23:15:49.440Z,22.20
2019-02-25T23:18:21.544Z,23.63
2019-02-25T23:20:50.336Z,24.60
2019-02-25T23:23:21.291Z,23.47
2019-02-25T23:25:51.419Z,25.10
2019-02-25T23:28:22.917Z,24.97
2019-02-25T23:30:53.261Z,23.50
2019-02-25T23:33:22.801Z,22.17
2019-02-25T23:35:54.106Z,24.40
2019-02-25T23:38:22.437Z,22.67
2019-02-25T23:40:50.576Z,25.70
2019-02-25T23:43:19.006Z,24.00
2019-02-25T23:45:47.270Z,23.60
2019-02-25T23:48:15.406Z,23.43
2019-02-25T23:50:43.926Z,22.70
2019-02-25T23:53:11.955Z,22.20
2019-02-25T23:55:43.154Z,22.33
2019-02-25T23:58:12.289Z,23.10
